Time;durP1;ratioP1;P1;durP2;ratioP2;P2;SDS_P1;SDS_P2;PMS_P1;PMS_P2;Temp;Humidity;BMP_temperature;BMP_pressure;BME280_temperature;BME280_humidity;BME280_pressure;Samples;Min_cycle;Max_cycle;Signal;HPM_P1;HPM_P2
2023/04/02 00:00:04;;;;;;;17.17;10.20;;;;;;;5.34;100.00;100949.63;5095068;28;20043;-88
2023/04/02 00:02:31;;;;;;;16.30;9.73;;;;;;;5.30;100.00;100957.19;5080584;28;20024;-89
2023/04/02 00:05:24;;;;;;;16.33;9.77;;;;;;;5.24;100.00;100954.59;5096335;28;20036;-89
2023/04/02 00:07:52;;;;;;;13.18;8.90;;;;;;;5.17;100.00;100954.69;5081958;28;20376;-88
2023/04/02 00:10:32;;;;;;;14.50;9.35;;;;;;;5.21;100.00;100950.56;5101772;28;20084;-88
2023/04/02 00:13:08;;;;;;;13.65;9.10;;;;;;;5.30;100.00;100978.47;5097423;28;20020;-88
2023/04/02 00:15:34;;;;;;;15.43;9.90;;;;;;;5.24;100.00;100970.56;5093290;28;20049;-88
2023/04/02 00:18:00;;;;;;;14.75;9.32;;;;;;;5.26;100.00;100979.94;5094615;28;20141;-89
2023/04/02 00:20:28;;;;;;;15.13;10.10;;;;;;;5.19;100.00;100962.44;5093797;28;20463;-88
2023/04/02 00:22:55;;;;;;;16.20;9.98;;;;;;;5.26;100.00;100981.78;5094541;28;20024;-88
2023/04/02 00:25:21;;;;;;;15.82;10.15;;;;;;;5.19;100.00;100976.53;5093516;28;20390;-88
2023/04/02 00:27:46;;;;;;;17.63;10.85;;;;;;;5.18;100.00;100987.38;5092006;28;20028;-89
2023/04/02 00:30:12;;;;;;;19.57;10.63;;;;;;;5.12;100.00;100976.59;5092732;28;20038;-89
2023/04/02 00:32:38;;;;;;;18.73;11.82;;;;;;;5.14;100.00;100987.00;5077248;28;20487;-88
2023/04/02 00:35:11;;;;;;;18.03;11.17;;;;;;;5.14;100.00;100995.78;5073330;28;20426;-88
2023/04/02 00:37:37;;;;;;;16.02;10.27;;;;;;;5.04;100.00;100984.00;5072503;28;20028;-88
2023/04/02 00:40:15;;;;;;;17.45;11.02;;;;;;;5.06;100.00;100995.25;5072648;28;20428;-89
2023/04/02 00:42:42;;;;;;;20.08;11.13;;;;;;;5.08;100.00;100998.50;5072514;28;20032;-88
2023/04/02 00:45:23;;;;;;;18.23;11.40;;;;;;;5.08;100.00;101014.44;5073332;28;20032;-88
2023/04/02 00:47:49;;;;;;;20.47;11.40;;;;;;;5.07;100.00;101020.78;5074357;28;20035;-88
2023/04/02 00:50:22;;;;;;;16.30;10.30;;;;;;;4.97;100.00;101022.06;5092422;28;20277;-89
2023/04/02 00:52:51;;;;;;;16.75;10.05;;;;;;;4.98;100.00;101026.34;5092700;28;20032;-88
2023/04/02 00:55:23;;;;;;;16.05;10.48;;;;;;;4.99;100.00;101038.59;5093011;28;20032;-88
2023/04/02 00:57:50;;;;;;;14.48;9.48;;;;;;;4.98;100.00;101031.66;5091104;28;20032;-88
2023/04/02 01:00:20;;;;;;;16.17;10.45;;;;;;;4.96;100.00;101041.66;5091332;28;20039;-88
2023/04/02 01:03:15;;;;;;;16.65;10.63;;;;;;;4.99;100.00;101043.09;5093014;28;20067;-89
2023/04/02 01:05:43;;;;;;;15.87;10.13;;;;;;;4.88;100.00;101047.25;5092277;28;20064;-88
2023/04/02 01:08:37;;;;;;;17.77;10.35;;;;;;;4.91;100.00;101057.47;5073476;28;20040;-88
2023/04/02 01:11:30;;;;;;;18.02;11.35;;;;;;;4.89;100.00;101069.31;5072595;28;20115;-88
2023/04/02 01:14:16;;;;;;;19.85;11.13;;;;;;;4.87;100.00;101066.03;5071013;28;20071;-88
2023/04/02 01:16:59;;;;;;;15.52;10.95;;;;;;;4.75;100.00;101063.28;5071024;28;20028;-89
2023/04/02 01:19:51;;;;;;;18.23;11.13;;;;;;;4.91;100.00;101081.34;5071184;28;20028;-88
2023/04/02 01:22:23;;;;;;;17.53;10.63;;;;;;;4.85;100.00;101085.66;5072301;28;20028;-88
2023/04/02 01:24:48;;;;;;;14.23;9.30;;;;;;;4.75;100.00;101064.06;5072479;28;20295;-88
2023/04/02 01:27:14;;;;;;;14.05;9.68;;;;;;;4.81;100.00;101081.81;5078342;28;20081;-88
2023/04/02 01:29:47;;;;;;;11.48;7.38;;;;;;;4.76;100.00;101076.31;5073564;28;20032;-88
2023/04/02 01:32:16;;;;;;;12.55;8.45;;;;;;;4.74;100.00;101083.69;5072343;28;20025;-89
2023/04/02 01:34:45;;;;;;;15.82;9.20;;;;;;;4.76;100.00;101099.38;5082673;28;20032;-88
2023/04/02 01:37:35;;;;;;;18.47;11.10;;;;;;;4.76;100.00;101097.56;5074760;28;20383;-89
2023/04/02 01:40:13;;;;;;;22.42;10.75;;;;;;;4.77;100.00;101104.50;5071668;28;20063;-89
2023/04/02 01:42:57;;;;;;;16.83;11.82;;;;;;;4.76;100.00;101110.00;5071953;28;20036;-89
2023/04/02 01:45:24;;;;;;;23.65;12.52;;;;;;;4.72;100.00;101114.94;5071696;28;20025;-89
2023/04/02 01:47:50;;;;;;;21.85;12.63;;;;;;;4.67;100.00;101117.41;5072031;28;20024;-89
2023/04/02 01:50:30;;;;;;;19.48;12.70;;;;;;;4.48;100.00;101108.50;5071825;28;20495;-88
2023/04/02 01:52:58;;;;;;;21.88;12.73;;;;;;;4.52;100.00;101125.66;5071822;28;20071;-89
2023/04/02 01:55:34;;;;;;;21.03;12.80;;;;;;;4.53;100.00;101137.91;5071874;28;20386;-89
2023/04/02 01:58:00;;;;;;;23.60;12.77;;;;;;;4.46;100.00;101143.22;5086755;28;20358;-89
2023/04/02 02:00:29;;;;;;;15.63;9.38;;;;;;;4.36;100.00;101130.41;5091093;28;20031;-89
2023/04/02 02:02:55;;;;;;;16.15;11.13;;;;;;;4.40;100.00;101142.22;5091836;28;20386;-88
2023/04/02 02:05:22;;;;;;;18.15;11.15;;;;;;;4.37;100.00;101142.66;5091256;28;20024;-88
2023/04/02 02:07:49;;;;;;;16.92;10.35;;;;;;;4.38;100.00;101154.06;5075573;28;20032;-89
2023/04/02 02:10:22;;;;;;;15.75;9.52;;;;;;;4.37;100.00;101160.38;5070649;28;20040;-88
2023/04/02 02:12:47;;;;;;;16.48;10.27;;;;;;;4.31;100.00;101155.91;5071613;28;20032;-88
2023/04/02 02:15:18;;;;;;;17.37;10.03;;;;;;;4.39;100.00;101164.47;5071158;28;20025;-88
2023/04/02 02:17:44;;;;;;;17.83;9.95;;;;;;;4.41;100.00;101166.91;5070616;28;20082;-88
2023/04/02 02:20:11;;;;;;;14.60;9.43;;;;;;;4.33;100.00;101162.66;5070680;28;20028;-89
2023/04/02 02:22:42;;;;;;;15.00;9.48;;;;;;;4.35;100.00;101179.19;5070974;28;20027;-89
2023/04/02 02:25:14;;;;;;;13.48;8.82;;;;;;;4.29;100.00;101177.34;5087799;28;20048;-88
2023/04/02 02:27:43;;;;;;;12.25;7.93;;;;;;;4.22;100.00;101182.66;5089394;28;20658;-88
2023/04/02 02:30:16;;;;;;;15.60;8.45;;;;;;;4.21;100.00;101194.31;5071349;28;20097;-88
2023/04/02 02:33:13;;;;;;;11.48;7.30;;;;;;;4.13;100.00;101186.53;5071275;28;20020;-89
2023/04/02 02:35:47;;;;;;;11.50;6.78;;;;;;;4.13;100.00;101202.47;5073174;28;20058;-89
2023/04/02 02:38:24;;;;;;;11.23;7.53;;;;;;;4.14;100.00;101204.09;5080268;28;20032;-89
2023/04/02 02:40:55;;;;;;;10.15;6.95;;;;;;;4.02;100.00;101203.09;5091646;28;20020;-89
2023/04/02 02:43:21;;;;;;;12.90;7.65;;;;;;;4.12;100.00;101214.09;5088021;28;20039;-89
2023/04/02 02:45:49;;;;;;;8.70;6.63;;;;;;;4.03;100.00;101202.88;5084114;28;20155;-88
2023/04/02 02:48:18;;;;;;;11.20;6.70;;;;;;;4.12;100.00;101229.19;5093336;28;20396;-89
2023/04/02 02:50:45;;;;;;;13.00;7.43;;;;;;;4.12;100.00;101227.34;5095055;28;20459;-87
2023/04/02 02:53:16;;;;;;;7.97;6.60;;;;;;;4.13;100.00;101233.47;5093696;28;20016;-88
2023/04/02 02:55:42;;;;;;;9.43;6.68;;;;;;;4.12;100.00;101237.97;5087831;28;20058;-89
2023/04/02 02:58:25;;;;;;;10.80;7.22;;;;;;;4.28;100.00;101238.59;5087311;28;20041;-89
2023/04/02 03:00:50;;;;;;;12.00;8.37;;;;;;;4.01;100.00;101236.75;5077650;28;20021;-88
2023/04/02 03:03:20;;;;;;;14.88;8.68;;;;;;;4.08;100.00;101255.31;5072006;28;20040;-89
2023/04/02 03:05:55;;;;;;;13.88;8.65;;;;;;;4.00;100.00;101248.38;5070458;28;20064;-89
2023/04/02 03:08:30;;;;;;;14.07;9.97;;;;;;;4.07;100.00;101257.13;5071297;28;20052;-88
2023/04/02 03:11:05;;;;;;;19.27;9.70;;;;;;;4.07;100.00;101270.41;5070809;28;20286;-89
2023/04/02 03:13:34;;;;;;;16.60;8.70;;;;;;;4.08;100.00;101269.38;5079018;28;20028;-89
2023/04/02 03:16:22;;;;;;;16.58;9.80;;;;;;;4.14;100.00;101270.41;5091612;28;20016;-89
2023/04/02 03:18:57;;;;;;;18.95;9.95;;;;;;;4.02;100.00;101272.03;5090797;28;20081;-89
2023/04/02 03:21:41;;;;;;;16.85;9.75;;;;;;;4.05;100.00;101291.00;5071176;28;20036;-89
2023/04/02 03:24:33;;;;;;;17.77;10.90;;;;;;;3.95;100.00;101287.94;5071203;28;20608;-89
2023/04/02 03:27:06;;;;;;;16.03;9.70;;;;;;;3.97;100.00;101307.13;5071963;28;20048;-89
2023/04/02 03:29:40;;;;;;;15.07;8.37;;;;;;;3.97;100.00;101309.78;5078159;28;20297;-89
2023/04/02 03:32:15;;;;;;;13.60;8.40;;;;;;;3.95;100.00;101311.81;5095270;28;20102;-89
2023/04/02 03:34:46;;;;;;;17.88;9.80;;;;;;;3.88;100.00;101324.22;5094651;28;20380;-89
2023/04/02 03:37:23;;;;;;;17.23;9.20;;;;;;;3.87;100.00;101328.72;5094550;28;20085;-89
2023/04/02 03:39:51;;;;;;;13.43;9.35;;;;;;;3.86;100.00;101328.91;5094768;28;20028;-89
2023/04/02 03:42:23;;;;;;;14.73;8.45;;;;;;;3.81;100.00;101328.72;5094245;28;20383;-89
2023/04/02 03:45:02;;;;;;;13.97;9.07;;;;;;;3.83;100.00;101337.28;5095319;28;20081;-89
2023/04/02 03:47:36;;;;;;;15.32;9.30;;;;;;;3.83;100.00;101347.91;5086227;28;20190;-89
2023/04/02 03:50:16;;;;;;;14.15;9.27;;;;;;;3.78;100.00;101354.59;5094991;28;20084;-89
2023/04/02 03:52:42;;;;;;;15.50;10.00;;;;;;;3.76;100.00;101371.72;5095249;28;20255;-89
2023/04/02 03:55:17;;;;;;;19.40;9.47;;;;;;;3.79;100.00;101368.66;5095565;28;20024;-89
2023/04/02 03:58:15;;;;;;;17.92;9.57;;;;;;;3.82;100.00;101370.91;5094348;28;20031;-90
2023/04/02 04:00:47;;;;;;;18.05;10.02;;;;;;;3.60;100.00;101375.53;5094091;28;20107;-90
2023/04/02 04:03:25;;;;;;;16.05;9.05;;;;;;;3.63;100.00;101388.41;5086898;28;20032;-89
2023/04/02 04:06:04;;;;;;;12.80;8.48;;;;;;;3.54;100.00;101373.66;5076002;28;20031;-89
2023/04/02 04:08:36;;;;;;;12.23;7.80;;;;;;;3.56;100.00;101385.69;5075921;28;20518;-90
2023/04/02 04:11:08;;;;;;;16.40;9.17;;;;;;;3.56;100.00;101387.53;5076294;28;20062;-89
2023/04/02 04:13:52;;;;;;;10.25;7.10;;;;;;;3.52;100.00;101384.47;5074139;28;20527;-89
2023/04/02 04:16:28;;;;;;;14.52;8.32;;;;;;;3.56;100.00;101398.13;5089938;28;20043;-89
2023/04/02 04:19:16;;;;;;;14.30;8.75;;;;;;;3.44;100.00;101392.56;5077159;28;20025;-89
2023/04/02 04:21:44;;;;;;;13.60;8.52;;;;;;;3.56;100.00;101414.03;5082387;28;20009;-89
2023/04/02 04:24:27;;;;;;;15.77;8.90;;;;;;;3.56;100.00;101419.34;5091580;28;20082;-89
2023/04/02 04:27:08;;;;;;;14.60;9.10;;;;;;;3.56;100.00;101417.50;5084648;28;20032;-90
2023/04/02 04:29:50;;;;;;;14.40;9.87;;;;;;;3.67;100.00;101428.56;5073129;28;20286;-89
2023/04/02 04:32:30;;;;;;;15.90;9.02;;;;;;;3.54;100.00;101445.22;5073762;28;20025;-90
2023/04/02 04:35:03;;;;;;;13.48;8.88;;;;;;;3.45;100.00;101439.25;5074089;28;20539;-89
2023/04/02 04:37:37;;;;;;;10.88;7.25;;;;;;;3.46;100.00;101457.63;5072502;28;20559;-89
2023/04/02 04:40:06;;;;;;;11.30;7.13;;;;;;;3.42;100.00;101464.31;5072163;28;20464;-89
2023/04/02 04:42:36;;;;;;;11.60;6.53;;;;;;;3.44;100.00;101474.72;5075266;28;20124;-89
2023/04/02 04:45:12;;;;;;;10.17;6.93;;;;;;;3.44;100.00;101472.06;5085507;28;20058;-89
2023/04/02 04:47:42;;;;;;;12.80;7.00;;;;;;;3.40;100.00;101482.25;5093133;28;20910;-89
2023/04/02 04:50:20;;;;;;;12.77;6.75;;;;;;;3.31;100.00;101488.69;5093304;28;20024;-88
2023/04/02 04:52:45;;;;;;;6.72;4.70;;;;;;;3.36;100.00;101486.28;5093718;28;20050;-89
2023/04/02 04:55:38;;;;;;;13.13;7.90;;;;;;;3.36;100.00;101506.69;5090936;28;20526;-88
2023/04/02 04:58:17;;;;;;;13.48;7.38;;;;;;;3.26;100.00;101496.41;5090181;28;20064;-89
2023/04/02 05:00:51;;;;;;;11.40;6.60;;;;;;;3.32;100.00;101515.00;5092786;28;20436;-89
2023/04/02 05:03:38;;;;;;;11.70;6.32;;;;;;;3.26;100.00;101515.75;5092918;28;20024;-89
2023/04/02 05:06:24;;;;;;;10.85;6.35;;;;;;;3.24;100.00;101509.84;5093292;28;20031;-89
2023/04/02 05:08:53;;;;;;;12.88;6.50;;;;;;;3.31;100.00;101525.78;5092611;28;20127;-89
2023/04/02 05:11:34;;;;;;;13.30;7.57;;;;;;;3.25;100.00;101523.91;5089108;28;20058;-89
2023/04/02 05:14:06;;;;;;;12.63;7.13;;;;;;;3.18;100.00;101531.81;5092892;28;20357;-89
2023/04/02 05:16:41;;;;;;;12.02;6.88;;;;;;;3.14;100.00;101536.66;5092355;28;20020;-89
2023/04/02 05:19:16;;;;;;;12.40;6.13;;;;;;;3.24;100.00;101549.56;5092806;28;20031;-89
2023/04/02 05:21:50;;;;;;;9.60;6.93;;;;;;;3.10;100.00;101530.13;5091896;28;20692;-89
2023/04/02 05:24:35;;;;;;;10.80;6.72;;;;;;;3.21;100.00;101547.28;5092890;28;20038;-89
2023/04/02 05:27:17;;;;;;;8.82;6.75;;;;;;;3.18;100.00;101561.75;5086564;28;20426;-89
2023/04/02 05:29:49;;;;;;;9.70;6.70;;;;;;;3.18;100.00;101551.16;5070988;28;20232;-89
2023/04/02 05:32:20;;;;;;;10.20;6.38;;;;;;;3.17;100.00;101560.09;5072502;28;20040;-89
2023/04/02 05:34:51;;;;;;;8.53;5.87;;;;;;;3.18;100.00;101545.06;5072923;28;20020;-89
2023/04/02 05:37:23;;;;;;;10.80;6.63;;;;;;;3.11;100.00;101571.44;5079434;28;20031;-88
2023/04/02 05:39:55;;;;;;;11.73;6.63;;;;;;;3.18;100.00;101567.03;5086047;28;20107;-89
2023/04/02 05:42:27;;;;;;;8.20;6.07;;;;;;;3.14;100.00;101576.38;5096328;28;20021;-89
2023/04/02 05:45:18;;;;;;;10.77;6.18;;;;;;;3.11;100.00;101582.03;5094537;28;20031;-89
2023/04/02 05:47:45;;;;;;;11.05;6.03;;;;;;;3.07;100.00;101583.44;5092314;28;20009;-89
2023/04/02 05:50:39;;;;;;;10.75;5.20;;;;;;;3.10;100.00;101593.69;5078590;28;20434;-89
2023/04/02 05:53:08;;;;;;;10.67;6.30;;;;;;;3.16;100.00;101602.69;5074995;28;20025;-89
2023/04/02 05:55:39;;;;;;;9.25;5.82;;;;;;;3.20;100.00;101597.81;5074638;28;20059;-89
2023/04/02 05:58:15;;;;;;;12.98;7.13;;;;;;;3.23;100.00;101608.84;5075030;28;20050;-89
2023/04/02 06:00:50;;;;;;;8.60;6.45;;;;;;;3.13;100.00;101597.75;5072954;28;20029;-89
2023/04/02 06:03:26;;;;;;;12.23;5.75;;;;;;;3.26;100.00;101627.03;5080612;28;20020;-89
2023/04/02 06:05:59;;;;;;;13.85;7.82;;;;;;;3.14;100.00;101617.94;5080094;28;20024;-91
2023/04/02 06:09:00;;;;;;;10.67;6.60;;;;;;;3.22;100.00;101635.53;5092699;28;20024;-88
2023/04/02 06:11:31;;;;;;;10.63;7.07;;;;;;;3.15;100.00;101638.94;5092400;28;20024;-91
2023/04/02 06:13:57;;;;;;;17.00;8.40;;;;;;;3.16;100.00;101653.00;5082957;28;20071;-89
2023/04/02 06:16:29;;;;;;;14.10;8.25;;;;;;;3.17;100.00;101652.81;5071045;28;20028;-88
2023/04/02 06:18:55;;;;;;;12.65;7.95;;;;;;;2.95;100.00;101640.53;5073386;28;20032;-87
2023/04/02 06:21:21;;;;;;;14.20;8.43;;;;;;;3.00;100.00;101664.63;5072490;28;20046;-88
2023/04/02 06:23:55;;;;;;;14.23;8.65;;;;;;;3.00;100.00;101665.47;5077751;28;20028;-87
2023/04/02 06:26:37;;;;;;;13.43;8.20;;;;;;;3.03;100.00;101665.09;5085087;22;20055;-87
2023/04/02 06:29:16;;;;;;;14.38;7.80;;;;;;;3.09;100.00;101676.78;5093540;28;20060;-86
2023/04/02 06:31:49;;;;;;;12.68;7.15;;;;;;;3.03;100.00;101675.66;5072810;28;20536;-87
2023/04/02 06:34:18;;;;;;;9.57;6.57;;;;;;;2.97;100.00;101692.31;5103861;28;20386;-87
2023/04/02 06:36:45;;;;;;;13.40;6.73;;;;;;;2.99;100.00;101687.66;5085225;28;20286;-88
2023/04/02 06:39:18;;;;;;;12.93;7.90;;;;;;;2.98;100.00;101701.06;5088218;28;20510;-89
2023/04/02 06:41:46;;;;;;;12.68;7.53;;;;;;;3.15;100.00;101702.50;5089676;28;20020;-89
2023/04/02 06:44:23;;;;;;;13.30;5.57;;;;;;;3.25;100.00;101719.94;5072413;28;20235;-89
2023/04/02 06:46:58;;;;;;;13.52;6.50;;;;;;;3.29;100.00;101715.88;5089259;28;20115;-89
2023/04/02 06:49:45;;;;;;;10.27;5.70;;;;;;;3.30;100.00;101725.47;5090379;28;20096;-88
2023/04/02 06:52:36;;;;;;;11.40;5.27;;;;;;;3.30;100.00;101738.72;5091048;28;20296;-89
2023/04/02 06:55:41;;;;;;;9.75;5.57;;;;;;;3.35;100.00;101740.84;5082005;28;20066;-90
2023/04/02 06:58:08;;;;;;;13.20;5.28;;;;;;;3.40;100.00;101749.84;5069786;28;20520;-89
2023/04/02 07:00:37;;;;;;;9.77;4.95;;;;;;;3.38;100.00;101757.16;5072948;28;20044;-89
2023/04/02 07:03:06;;;;;;;5.63;4.32;;;;;;;3.36;100.00;101742.47;5096291;28;20024;-89
2023/04/02 07:05:31;;;;;;;8.93;4.88;;;;;;;3.45;100.00;101755.41;5118289;28;20144;-90
2023/04/02 07:07:57;;;;;;;7.47;4.37;;;;;;;3.44;100.00;101769.69;5099790;28;20099;-89
2023/04/02 07:10:23;;;;;;;8.37;4.70;;;;;;;3.53;100.00;101766.91;5102833;28;20044;-90
2023/04/02 07:12:49;;;;;;;6.13;3.88;;;;;;;3.63;100.00;101781.50;5127584;28;20055;-91
2023/04/02 07:15:18;;;;;;;6.93;3.97;;;;;;;3.60;100.00;101783.69;5088183;28;20483;-87
2023/04/02 07:17:44;;;;;;;6.63;3.70;;;;;;;3.66;100.00;101805.97;5093886;28;20394;-87
2023/04/02 07:20:40;;;;;;;7.10;3.78;;;;;;;3.67;100.00;101816.38;5096015;28;20016;-90
2023/04/02 07:23:05;;;;;;;10.20;4.00;;;;;;;3.51;100.00;101822.75;5078060;28;20410;-87
2023/04/02 07:25:31;;;;;;;5.03;3.20;;;;;;;3.27;100.00;101811.44;5094721;28;20085;-89
2023/04/02 07:27:56;;;;;;;5.13;2.80;;;;;;;3.26;100.00;101836.28;5095686;28;20507;-90
2023/04/02 07:30:22;;;;;;;5.53;3.27;;;;;;;3.12;100.00;101835.28;5089429;28;20016;-91
2023/04/02 07:32:48;;;;;;;4.38;2.22;;;;;;;3.12;100.00;101830.00;5095993;28;20024;-92
2023/04/02 07:35:13;;;;;;;7.00;3.13;;;;;;;3.06;100.00;101819.31;5092521;28;20020;-91
2023/04/02 07:37:39;;;;;;;8.90;2.92;;;;;;;3.14;100.00;101837.78;5080798;28;20024;-92
2023/04/02 07:40:14;;;;;;;5.77;2.40;;;;;;;3.16;100.00;101839.22;5086145;28;20023;-91
2023/04/02 07:42:42;;;;;;;6.82;2.80;;;;;;;3.21;100.00;101845.81;5092103;28;20033;-92
2023/04/02 07:45:08;;;;;;;5.95;3.13;;;;;;;3.26;100.00;101862.78;5080700;28;20426;-91
2023/04/02 07:47:34;;;;;;;5.87;2.80;;;;;;;3.27;100.00;101850.38;5082254;28;20029;-91
2023/04/02 07:49:59;;;;;;;4.95;2.40;;;;;;;3.47;100.00;101869.97;5080327;28;20024;-91
2023/04/02 07:52:24;;;;;;;6.07;2.27;;;;;;;3.36;100.00;101856.41;5092017;28;20032;-90
2023/04/02 07:54:50;;;;;;;14.23;3.07;;;;;;;3.51;100.00;101857.22;5093745;28;20051;-92
2023/04/02 07:57:15;;;;;;;9.00;2.47;;;;;;;3.60;100.00;101855.28;5093263;28;20035;-92
2023/04/02 07:59:41;;;;;;;5.72;2.22;;;;;;;3.85;100.00;101870.81;5099442;28;20531;-91
2023/04/02 08:02:17;;;;;;;4.10;2.60;;;;;;;3.90;100.00;101865.78;5116383;28;20027;-92
2023/04/02 08:04:43;;;;;;;5.50;2.20;;;;;;;4.01;100.00;101891.00;5095857;28;20035;-92
2023/04/02 08:07:08;;;;;;;5.70;2.37;;;;;;;3.61;100.00;101851.63;5271661;22;20044;-91
2023/04/02 08:09:33;;;;;;;7.07;2.10;;;;;;;3.83;100.00;101886.13;5092592;28;20415;-91
2023/04/02 08:11:59;;;;;;;5.00;2.20;;;;;;;3.71;100.00;101883.94;5089912;28;20024;-92
2023/04/02 08:14:24;;;;;;;6.73;2.40;;;;;;;3.88;100.00;101902.28;5078585;28;20051;-91
2023/04/02 08:16:52;;;;;;;4.13;2.10;;;;;;;4.01;100.00;101902.44;5075796;28;20106;-92
2023/04/02 08:19:18;;;;;;;5.67;2.23;;;;;;;4.07;100.00;101901.69;5074850;28;20021;-92
2023/04/02 08:21:43;;;;;;;7.13;2.08;;;;;;;4.17;100.00;101917.28;5075467;28;20031;-88
2023/04/02 08:24:09;;;;;;;6.45;2.10;;;;;;;4.10;100.00;101911.13;5072356;28;20029;-92
2023/04/02 08:26:36;;;;;;;6.03;2.20;;;;;;;4.18;100.00;101903.03;5074608;28;20025;-92
2023/04/02 08:29:01;;;;;;;5.20;2.00;;;;;;;4.22;100.00;101925.53;5085857;28;20058;-90
2023/04/02 08:31:26;;;;;;;6.10;2.07;;;;;;;4.31;100.00;101938.66;5089019;28;20024;-89
2023/04/02 08:33:56;;;;;;;8.00;2.57;;;;;;;4.38;100.00;101940.38;5087984;28;20449;-90
2023/04/02 08:36:46;;;;;;;4.68;1.67;;;;;;;4.47;100.00;101948.22;5115799;22;20059;-89
2023/04/02 08:39:31;;;;;;;6.07;2.30;;;;;;;4.15;100.00;101932.56;5079285;28;20041;-89
2023/04/02 08:42:13;;;;;;;5.38;1.95;;;;;;;4.35;100.00;101955.84;5071772;28;20017;-89
2023/04/02 08:44:50;;;;;;;4.22;2.28;;;;;;;4.72;100.00;101971.75;5097023;28;20054;-90
2023/04/02 08:47:19;;;;;;;4.90;1.60;;;;;;;4.78;100.00;101960.34;5093417;28;20021;-90
2023/04/02 08:50:39;;;;;;;5.80;1.90;;;;;;;4.80;100.00;101968.94;5089079;28;20348;-90
2023/04/02 08:53:19;;;;;;;2.35;1.40;;;;;;;4.87;100.00;101958.38;5009105;28;20048;-90
2023/04/02 08:56:02;;;;;;;4.25;1.75;;;;;;;4.89;100.00;101985.56;5075289;28;20097;-90
2023/04/02 08:58:34;;;;;;;3.17;1.70;;;;;;;4.89;100.00;101989.06;5078630;28;20029;-90
2023/04/02 09:01:04;;;;;;;4.90;2.15;;;;;;;4.63;100.00;101987.78;5058854;28;20021;-89
2023/04/02 09:03:35;;;;;;;3.38;1.90;;;;;;;4.40;100.00;101999.38;5040842;28;20029;-88
2023/04/02 09:06:04;;;;;;;3.93;1.50;;;;;;;4.48;100.00;102013.56;5068227;28;20028;-88
2023/04/02 09:08:31;;;;;;;4.30;1.50;;;;;;;4.44;100.00;102006.97;5072121;28;20024;-89
2023/04/02 09:11:18;;;;;;;3.88;1.80;;;;;;;4.55;100.00;102012.63;5055097;28;20166;-89
2023/04/02 09:13:47;;;;;;;3.72;1.40;;;;;;;4.49;100.00;102023.97;5073587;28;20115;-89
2023/04/02 09:39:56;;;;;;;6.28;2.20;;;;;;;4.55;100.00;102038.38;5905984;22;20056;-89
2023/04/02 09:49:39;;;;;;;7.55;1.65;;;;;;;5.19;100.00;102092.53;5010277;28;20084;-89
2023/04/02 09:52:15;;;;;;;4.35;1.60;;;;;;;5.29;100.00;102069.13;5022968;28;20044;-89
2023/04/02 09:54:40;;;;;;;4.20;2.33;;;;;;;5.40;100.00;102090.88;5052237;28;20041;-89
2023/04/02 10:00:52;;;;;;;3.45;1.30;;;;;;;5.22;100.00;102110.75;5041876;28;20630;-89
2023/04/02 10:09:42;;;;;;;2.97;1.63;;;;;;;5.44;100.00;102100.91;5027386;28;20051;-89
2023/04/02 10:15:40;;;;;;;6.55;2.13;;;;;;;4.92;100.00;102078.16;5030477;28;20471;-89
2023/04/02 10:18:37;;;;;;;;;;;;;;;;;;;;;
2023/04/02 10:24:43;;;;;;;3.65;1.58;;;;;;;5.43;100.00;102122.38;5071421;28;20055;-90
2023/04/02 10:28:01;;;;;;;3.78;1.33;;;;;;;5.72;100.00;102139.19;5261928;22;20134;-90
2023/04/02 10:34:42;;;;;;;3.97;1.20;;;;;;;5.74;100.00;102100.75;5094464;28;20289;-90
2023/04/02 10:37:22;;;;;;;2.85;1.35;;;;;;;5.80;100.00;102157.66;5091167;28;20687;-91
2023/04/02 10:40:00;;;;;;;4.30;1.38;;;;;;;5.71;100.00;102150.81;5091764;28;20049;-90
2023/04/02 10:42:36;;;;;;;8.45;1.70;;;;;;;5.96;100.00;102169.03;5089330;28;20024;-90
2023/04/02 10:47:43;;;;;;;4.72;1.50;;;;;;;6.10;98.13;102168.13;5701873;22;20108;-89
2023/04/02 10:50:38;;;;;;;3.05;1.65;;;;;;;6.08;99.47;102186.13;5112947;28;20027;-90
2023/04/02 10:53:14;;;;;;;3.17;1.67;;;;;;;5.93;96.99;102167.59;5111450;28;20016;-90
2023/04/02 10:55:46;;;;;;;3.03;1.70;;;;;;;5.83;96.14;102173.25;5093688;28;20286;-90
2023/04/02 10:58:44;;;;;;;8.25;2.28;;;;;;;6.15;99.46;102181.69;5093801;28;20286;-90
2023/04/02 11:01:30;;;;;;;2.80;1.40;;;;;;;5.97;97.88;102128.09;5117665;22;20060;-90
2023/04/02 11:04:33;;;;;;;6.68;1.85;;;;;;;6.51;94.92;102175.34;5114711;28;20020;-89
2023/04/02 11:10:46;;;;;;;5.72;1.70;;;;;;;6.85;92.91;102146.16;5090809;28;20092;-90
2023/04/02 11:13:22;;;;;;;5.53;1.53;;;;;;;7.01;89.93;102176.16;5072022;28;20032;-89
2023/04/02 11:15:48;;;;;;;5.80;1.70;;;;;;;7.23;89.67;102211.47;5071255;28;20286;-90
2023/04/02 11:18:34;;;;;;;5.90;1.70;;;;;;;7.18;87.94;102211.25;5074818;28;20020;-89
2023/04/02 11:21:01;;;;;;;8.10;2.10;;;;;;;7.18;91.15;102212.09;5080348;28;20036;-89
2023/04/02 11:23:30;;;;;;;4.03;1.55;;;;;;;7.25;90.57;102207.56;5092173;28;20028;-90
2023/04/02 11:26:30;;;;;;;2.53;1.27;;;;;;;7.42;88.10;102232.03;5090501;28;20029;-89
2023/04/02 11:29:22;;;;;;;3.63;1.00;;;;;;;7.31;90.18;102231.81;5072498;28;20279;-89
2023/04/02 11:31:49;;;;;;;2.40;1.45;;;;;;;7.25;86.35;102228.09;5046611;28;20047;-90
2023/04/02 11:34:40;;;;;;;3.47;1.33;;;;;;;7.38;87.87;102228.13;5090567;28;20032;-90
2023/04/02 11:37:28;;;;;;;4.18;1.35;;;;;;;7.51;88.10;102237.16;5090299;28;20028;-90
2023/04/02 11:39:58;;;;;;;3.00;1.30;;;;;;;7.82;89.01;102231.25;5090852;28;20093;-90
2023/04/02 11:42:39;;;;;;;1.55;1.02;;;;;;;8.08;84.95;102240.31;5103169;28;20024;-88
2023/04/02 11:45:22;;;;;;;2.17;1.13;;;;;;;8.09;85.90;102251.78;5107394;28;20123;-88
2023/04/02 11:48:29;;;;;;;6.55;1.30;;;;;;;8.00;85.20;102257.34;5293584;22;20045;-89
2023/04/02 11:50:55;;;;;;;4.18;1.30;;;;;;;7.64;83.38;102213.19;5100027;28;20042;-88
2023/04/02 11:54:04;;;;;;;3.15;1.23;;;;;;;7.99;86.72;102263.72;5111929;28;20023;-89
2023/04/02 12:03:47;;;;;;;1.75;0.77;;;;;;;7.95;85.10;102272.31;5064791;28;20082;-89
2023/04/02 12:06:33;;;;;;;4.25;1.20;;;;;;;7.84;83.92;102282.59;5074734;28;20036;-89
2023/04/02 12:09:43;;;;;;;1.85;1.10;;;;;;;7.63;85.42;102283.59;5074928;28;20459;-89
2023/04/02 12:12:24;;;;;;;4.63;1.10;;;;;;;7.73;84.40;102280.53;5077703;28;20035;-89
2023/04/02 12:14:55;;;;;;;6.03;1.30;;;;;;;7.78;83.82;102291.41;5076685;28;20094;-88
2023/04/02 12:17:32;;;;;;;4.43;1.23;;;;;;;8.02;85.83;102299.84;5069645;28;20097;-88
2023/04/02 12:20:19;;;;;;;3.27;0.80;;;;;;;8.03;81.08;102312.19;5041758;28;20676;-89
2023/04/02 12:22:50;;;;;;;7.53;1.40;;;;;;;8.08;83.11;102308.88;5034853;28;20364;-88
2023/04/02 12:25:18;;;;;;;2.45;1.30;;;;;;;8.02;80.68;102307.84;5052977;28;20040;-88
2023/04/02 12:27:46;;;;;;;4.43;1.42;;;;;;;7.78;80.78;102311.94;5041610;28;21074;-89
2023/04/02 12:30:17;;;;;;;2.55;1.00;;;;;;;7.76;82.61;102322.00;5057500;28;20110;-89
2023/04/02 12:32:43;;;;;;;2.92;1.27;;;;;;;7.60;81.72;102318.66;5057548;28;20024;-89
2023/04/02 12:35:29;;;;;;;3.63;1.20;;;;;;;7.50;83.16;102316.38;5056951;28;20021;-89
2023/04/02 12:37:56;;;;;;;2.13;1.17;;;;;;;7.03;82.36;102318.84;5054503;28;20291;-89
2023/04/02 12:40:23;;;;;;;3.50;1.10;;;;;;;6.99;84.17;102320.25;5054423;28;20170;-89
2023/04/02 12:42:48;;;;;;;2.47;1.00;;;;;;;7.01;84.34;102328.88;5060430;28;20020;-89
2023/04/02 12:50:24;;;;;;;3.33;0.90;;;;;;;6.86;82.22;102269.56;5124334;22;20051;-89
2023/04/02 12:53:27;;;;;;;4.78;1.10;;;;;;;7.07;85.65;102346.78;5098617;28;20525;-89
2023/04/02 13:03:26;;;;;;;3.87;1.20;;;;;;;6.64;89.37;102330.91;5105597;28;20297;-88
2023/04/02 13:05:56;;;;;;;1.70;1.05;;;;;;;6.79;84.95;102333.47;5186699;22;20071;-88
2023/04/02 13:08:28;;;;;;;3.28;1.00;;;;;;;6.80;87.90;102330.59;5093001;28;20059;-88
2023/04/02 13:11:00;;;;;;;2.63;1.40;;;;;;;6.97;87.58;102340.94;5090922;28;20115;-88
2023/04/02 13:13:28;;;;;;;6.57;1.48;;;;;;;7.14;82.54;102336.13;5089509;28;20479;-88